createdAt,value
2022-09-29T00:02:09.303Z,13.50
2022-09-29T00:07:11.932Z,13.50
2022-09-29T00:12:14.804Z,13.50
2022-09-29T00:17:17.658Z,13.50
2022-09-29T00:22:20.404Z,13.50
2022-09-29T00:27:22.984Z,13.50
2022-09-29T00:32:25.521Z,13.50
2022-09-29T00:37:28.409Z,13.50
2022-09-29T00:42:32.662Z,13.50
2022-09-29T00:47:36.980Z,13.60
2022-09-29T00:52:43.937Z,13.60
2022-09-29T00:57:54.900Z,13.70
2022-09-29T01:03:05.586Z,13.70
2022-09-29T01:08:20.646Z,13.70
2022-09-29T01:13:23.570Z,13.70
2022-09-29T01:18:26.496Z,13.70
2022-09-29T01:23:52.907Z,13.70
2022-09-29T01:29:12.758Z,13.70
2022-09-29T01:34:21.449Z,13.70
2022-09-29T01:39:45.744Z,13.70
2022-09-29T01:44:48.331Z,13.70
2022-09-29T01:50:03.265Z,13.70
2022-09-29T01:55:18.270Z,13.60
2022-09-29T02:00:23.986Z,13.60
2022-09-29T02:05:29.822Z,13.70
2022-09-29T02:10:36.566Z,13.70
2022-09-29T02:15:43.598Z,13.70
2022-09-29T02:20:47.426Z,13.60
2022-09-29T02:25:51.075Z,13.60
2022-09-29T02:30:54.251Z,13.70
2022-09-29T02:35:59.601Z,13.70
2022-09-29T02:41:07.312Z,13.70
2022-09-29T02:46:34.794Z,13.60
2022-09-29T02:51:45.145Z,13.60
2022-09-29T02:57:25.174Z,13.60
2022-09-29T03:02:27.928Z,13.60
2022-09-29T03:07:30.555Z,13.60
2022-09-29T03:12:34.159Z,13.60
2022-09-29T03:17:36.707Z,13.60
2022-09-29T03:22:39.276Z,13.60
2022-09-29T03:27:42.444Z,13.60
2022-09-29T03:32:45.058Z,13.60
2022-09-29T03:37:47.719Z,13.60
2022-09-29T03:42:50.623Z,13.60
2022-09-29T03:47:53.281Z,13.60
2022-09-29T03:52:55.876Z,13.60
2022-09-29T03:57:58.579Z,13.60
2022-09-29T04:03:01.388Z,13.60
2022-09-29T04:08:07.644Z,13.60
2022-09-29T04:13:10.330Z,13.60
2022-09-29T04:18:13.084Z,13.60
2022-09-29T04:23:15.830Z,13.50
2022-09-29T04:28:18.504Z,13.50
2022-09-29T04:33:21.121Z,13.50
2022-09-29T04:38:23.912Z,13.50
2022-09-29T04:43:26.708Z,13.50
2022-09-29T04:48:32.532Z,13.60
2022-09-29T04:53:38.200Z,13.60
2022-09-29T04:58:42.464Z,13.50
2022-09-29T05:03:45.057Z,13.60
2022-09-29T05:08:47.831Z,13.60
2022-09-29T05:13:53.365Z,13.60
2022-09-29T05:18:55.987Z,13.60
2022-09-29T05:23:58.640Z,13.60
2022-09-29T05:29:02.021Z,13.60
2022-09-29T05:34:04.705Z,13.60
2022-09-29T05:39:07.407Z,13.60
2022-09-29T05:44:10.070Z,13.60
2022-09-29T05:49:12.743Z,13.60
2022-09-29T05:54:15.540Z,13.60
2022-09-29T05:59:18.742Z,13.50
2022-09-29T06:04:21.459Z,13.60
2022-09-29T06:09:24.183Z,13.60
2022-09-29T06:14:26.726Z,13.60
2022-09-29T06:19:29.302Z,13.60
2022-09-29T06:24:32.382Z,13.70
2022-09-29T06:29:34.918Z,13.70
2022-09-29T06:34:58.772Z,13.80
2022-09-29T06:40:05.697Z,13.80
2022-09-29T06:45:11.344Z,13.80
2022-09-29T06:50:15.708Z,13.90
2022-09-29T06:55:18.317Z,14.00
2022-09-29T07:00:20.831Z,14.00
2022-09-29T07:05:23.605Z,14.00
2022-09-29T07:10:26.197Z,14.00
2022-09-29T07:15:31.863Z,13.80
2022-09-29T07:20:35.703Z,13.60
2022-09-29T07:25:51.537Z,13.40
2022-09-29T07:31:13.425Z,13.30
2022-09-29T07:36:19.745Z,13.30
2022-09-29T07:41:22.867Z,13.30
2022-09-29T07:46:25.517Z,13.30
2022-09-29T07:51:28.244Z,13.40
2022-09-29T07:56:31.244Z,13.50
2022-09-29T08:01:33.945Z,13.70
2022-09-29T08:06:37.156Z,13.80
2022-09-29T08:11:42.047Z,13.90
2022-09-29T08:16:44.763Z,14.00
2022-09-29T08:21:49.861Z,14.20
2022-09-29T08:26:52.454Z,14.30
2022-09-29T08:31:56.829Z,14.50
2022-09-29T08:36:59.918Z,14.60
2022-09-29T08:42:23.532Z,14.60
2022-09-29T08:47:46.177Z,14.60
2022-09-29T08:52:57.318Z,14.60
2022-09-29T08:58:01.509Z,14.60
2022-09-29T09:03:19.471Z,14.60
2022-09-29T09:08:47.001Z,14.60
2022-09-29T09:14:23.686Z,14.70
2022-09-29T09:19:51.324Z,14.70
2022-09-29T09:25:04.951Z,14.90
2022-09-29T09:30:19.856Z,15.10
2022-09-29T09:35:29.392Z,15.40
2022-09-29T09:40:49.013Z,15.90
2022-09-29T09:45:58.373Z,16.30
2022-09-29T09:51:11.501Z,16.60
2022-09-29T09:56:18.309Z,16.70
2022-09-29T10:01:21.206Z,16.70
2022-09-29T10:06:24.168Z,16.70
2022-09-29T10:11:30.894Z,16.80
2022-09-29T10:16:44.120Z,16.80
2022-09-29T10:21:47.057Z,16.80
2022-09-29T10:26:51.539Z,17.00
2022-09-29T10:32:04.658Z,17.20
2022-09-29T10:37:38.326Z,17.50
2022-09-29T10:42:43.275Z,17.80
2022-09-29T10:47:49.166Z,18.00
2022-09-29T10:52:57.397Z,18.20
2022-09-29T10:58:06.321Z,18.30
2022-09-29T11:03:26.222Z,18.50
2022-09-29T11:08:28.888Z,18.70
2022-09-29T11:13:35.054Z,18.80
2022-09-29T11:18:39.514Z,18.80
2022-09-29T11:24:14.315Z,18.60
2022-09-29T11:29:39.793Z,18.50
2022-09-29T11:35:00.330Z,18.30
2022-09-29T11:40:28.343Z,18.10
2022-09-29T11:45:45.519Z,17.90
2022-09-29T11:51:06.275Z,17.80
2022-09-29T11:56:38.736Z,17.70
2022-09-29T12:01:47.673Z,17.50
2022-09-29T12:07:05.515Z,17.40
2022-09-29T12:12:23.661Z,17.30
2022-09-29T12:17:31.342Z,17.10
2022-09-29T12:22:36.965Z,17.00
2022-09-29T12:27:42.854Z,16.90
2022-09-29T12:32:59.617Z,16.90
2022-09-29T12:38:09.852Z,16.90
2022-09-29T12:43:19.607Z,16.90
2022-09-29T12:48:25.890Z,16.90
2022-09-29T12:53:36.088Z,16.80
2022-09-29T12:58:47.586Z,16.70
2022-09-29T13:04:03.934Z,16.70
2022-09-29T13:09:13.688Z,16.70
2022-09-29T13:14:36.535Z,16.60
2022-09-29T13:19:59.559Z,16.50
2022-09-29T13:25:11.421Z,16.50
2022-09-29T13:30:27.419Z,16.60
2022-09-29T13:35:38.182Z,16.60
2022-09-29T13:41:01.265Z,16.70
2022-09-29T13:46:31.462Z,16.80
2022-09-29T13:52:10.296Z,17.00
2022-09-29T13:57:12.923Z,17.20
2022-09-29T14:02:33.735Z,17.30
2022-09-29T14:07:55.853Z,17.30
2022-09-29T14:13:10.557Z,17.30
2022-09-29T14:18:42.353Z,17.30
2022-09-29T14:23:46.050Z,17.30
2022-09-29T14:28:52.458Z,17.30
2022-09-29T14:33:56.151Z,17.40
2022-09-29T14:39:35.309Z,17.50
2022-09-29T14:44:56.356Z,17.60
2022-09-29T14:50:20.570Z,17.50
2022-09-29T14:55:48.079Z,17.40
2022-09-29T15:01:12.605Z,17.20
2022-09-29T15:06:24.163Z,17.00
2022-09-29T15:11:37.515Z,16.90
2022-09-29T15:16:48.375Z,16.80
2022-09-29T15:22:07.122Z,16.80
2022-09-29T15:27:13.613Z,16.80
2022-09-29T15:32:27.478Z,16.80
2022-09-29T15:38:17.100Z,16.70
2022-09-29T15:43:28.825Z,16.60
2022-09-29T15:48:31.582Z,16.50
2022-09-29T15:53:34.334Z,16.40
2022-09-29T15:58:44.404Z,16.30
2022-09-29T16:03:50.836Z,16.20
2022-09-29T16:08:56.944Z,16.10
2022-09-29T16:14:20.829Z,16.00
2022-09-29T16:19:31.148Z,15.90
2022-09-29T16:24:51.172Z,15.80
2022-09-29T16:30:17.420Z,15.70
2022-09-29T16:35:42.159Z,15.60
2022-09-29T16:40:45.633Z,15.50
2022-09-29T16:45:52.848Z,15.40
2022-09-29T16:50:57.884Z,15.20
2022-09-29T16:56:20.237Z,15.10
2022-09-29T17:01:24.947Z,15.00
2022-09-29T17:06:28.934Z,14.90
2022-09-29T17:11:32.241Z,14.80
2022-09-29T17:16:34.899Z,14.80
2022-09-29T17:21:37.559Z,14.70
2022-09-29T17:27:03.227Z,14.60
2022-09-29T17:32:12.257Z,14.50
2022-09-29T17:37:19.612Z,14.40
2022-09-29T17:42:25.788Z,14.30
2022-09-29T17:47:30.369Z,14.30
2022-09-29T17:52:35.671Z,14.20
2022-09-29T17:57:38.719Z,14.10
2022-09-29T18:02:41.524Z,14.00
2022-09-29T18:07:45.023Z,14.00
2022-09-29T18:12:47.852Z,13.90
2022-09-29T18:17:55.510Z,13.80
2022-09-29T18:23:02.018Z,13.80
2022-09-29T18:28:04.722Z,13.60
2022-09-29T18:33:14.724Z,13.60
2022-09-29T18:38:17.350Z,13.50
2022-09-29T18:43:21.734Z,13.50
2022-09-29T18:48:24.442Z,13.40
2022-09-29T18:53:28.004Z,13.30
2022-09-29T18:58:30.676Z,13.20
2022-09-29T19:03:33.968Z,13.20
2022-09-29T19:08:36.741Z,13.10
2022-09-29T19:13:41.900Z,13.10
2022-09-29T19:18:44.821Z,13.00
2022-09-29T19:23:47.446Z,13.00
2022-09-29T19:28:50.554Z,13.00
2022-09-29T19:33:53.805Z,12.90
2022-09-29T19:38:56.486Z,12.90
2022-09-29T19:43:59.989Z,12.90
2022-09-29T19:49:03.505Z,12.90
2022-09-29T19:54:10.757Z,13.00
2022-09-29T19:59:15.725Z,13.00
2022-09-29T20:04:20.242Z,13.00
2022-09-29T20:09:23.257Z,12.90
2022-09-29T20:14:27.685Z,12.90
2022-09-29T20:19:31.212Z,12.90
2022-09-29T20:24:33.847Z,12.80
2022-09-29T20:29:36.489Z,12.80
2022-09-29T20:34:40.051Z,12.70
2022-09-29T20:39:43.058Z,12.70
2022-09-29T20:44:45.624Z,12.70
2022-09-29T20:49:48.360Z,12.70
2022-09-29T20:54:51.216Z,12.70
2022-09-29T20:59:55.994Z,12.80
2022-09-29T21:04:58.598Z,12.80
2022-09-29T21:10:01.532Z,12.80
2022-09-29T21:15:04.641Z,12.80
2022-09-29T21:20:07.574Z,12.70
2022-09-29T21:25:10.197Z,12.80
2022-09-29T21:30:12.857Z,12.90
2022-09-29T21:35:15.753Z,12.90
2022-09-29T21:40:18.358Z,13.00
2022-09-29T21:45:21.664Z,13.00
2022-09-29T21:50:24.804Z,13.10
2022-09-29T21:55:27.991Z,13.20
2022-09-29T22:00:30.697Z,13.20
2022-09-29T22:05:34.920Z,13.30
2022-09-29T22:10:37.577Z,13.30
2022-09-29T22:15:40.143Z,13.30
2022-09-29T22:20:42.849Z,13.20
2022-09-29T22:25:45.995Z,13.20
2022-09-29T22:30:49.110Z,13.10
2022-09-29T22:35:56.360Z,13.10
2022-09-29T22:40:58.944Z,13.10
2022-09-29T22:46:01.765Z,13.00
2022-09-29T22:51:05.407Z,12.90
2022-09-29T22:56:14.896Z,12.90
2022-09-29T23:01:19.914Z,12.90
2022-09-29T23:06:22.617Z,12.90
2022-09-29T23:11:25.378Z,12.90
2022-09-29T23:16:28.465Z,12.80
2022-09-29T23:21:31.199Z,12.80
2022-09-29T23:26:34.543Z,12.90
2022-09-29T23:31:38.141Z,12.90
2022-09-29T23:36:40.932Z,12.90
2022-09-29T23:41:47.668Z,12.80
2022-09-29T23:46:51.311Z,12.80
2022-09-29T23:51:57.924Z,12.90
2022-09-29T23:57:00.699Z,12.90
